Time;durP1;ratioP1;P1;durP2;ratioP2;P2;SDS_P1;SDS_P2;PMS_P1;PMS_P2;Temp;Humidity;BMP_temperature;BMP_pressure;BME280_temperature;BME280_humidity;BME280_pressure;Samples;Min_cycle;Max_cycle;Signal;HPM_P1;HPM_P2
2022/05/13 00:00:57;;;;;;;4.90;2.60;;;;;;;7.79;52.94;101584.13;4985604;28;21236;-80
2022/05/13 00:03:22;;;;;;;9.82;3.00;;;;;;;7.71;53.33;101582.53;5005913;28;20620;-83
2022/05/13 00:05:50;;;;;;;7.20;3.60;;;;;;;7.74;53.25;101577.25;5006112;28;20041;-81
2022/05/13 00:08:16;;;;;;;5.65;3.42;;;;;;;7.83;53.29;101575.41;4969348;28;20081;-80
2022/05/13 00:10:43;;;;;;;6.45;3.03;;;;;;;7.93;53.26;101575.19;4973383;28;20058;-78
2022/05/13 00:13:09;;;;;;;5.35;2.38;;;;;;;7.99;53.25;101574.22;4971398;28;20097;-81
2022/05/13 00:15:35;;;;;;;3.90;2.95;;;;;;;8.05;53.20;101573.28;5008243;28;20026;-83
2022/05/13 00:18:00;;;;;;;7.07;2.53;;;;;;;8.17;53.18;101564.38;4968110;28;20057;-80
2022/05/13 00:20:26;;;;;;;7.15;2.85;;;;;;;8.30;52.99;101566.69;5005593;28;20041;-78
2022/05/13 00:22:55;;;;;;;5.07;2.40;;;;;;;8.39;52.58;101557.84;4967494;28;20050;-79
2022/05/13 00:25:28;;;;;;;8.70;2.88;;;;;;;8.48;52.64;101556.81;4970160;28;20038;-80
2022/05/13 00:27:55;;;;;;;7.72;2.33;;;;;;;8.63;52.24;101560.81;4985866;28;20053;-81
2022/05/13 00:30:21;;;;;;;7.07;3.10;;;;;;;8.59;52.36;101556.59;4989919;28;20045;-80
2022/05/13 00:32:48;;;;;;;6.68;2.50;;;;;;;8.71;52.08;101551.16;5001520;28;20053;-80
2022/05/13 00:35:18;;;;;;;8.18;2.78;;;;;;;8.70;51.84;101554.63;4968965;28;20113;-78
2022/05/13 00:37:43;;;;;;;6.03;2.35;;;;;;;8.74;51.66;101554.56;4971921;28;20045;-79
2022/05/13 00:40:10;;;;;;;3.97;2.22;;;;;;;8.79;51.39;101557.06;5006890;28;20052;-80
2022/05/13 00:42:36;;;;;;;7.13;2.70;;;;;;;8.66;51.28;101550.38;5000999;28;20073;-81
2022/05/13 00:45:02;;;;;;;8.77;2.50;;;;;;;8.77;51.61;101544.06;4970656;28;20477;-80
2022/05/13 00:47:28;;;;;;;6.22;2.13;;;;;;;8.89;51.18;101544.69;4966865;28;20082;-79
2022/05/13 00:49:55;;;;;;;3.92;1.90;;;;;;;8.96;50.87;101533.22;4967461;28;20054;-81
2022/05/13 00:52:22;;;;;;;8.35;2.83;;;;;;;9.04;50.45;101540.88;4981467;28;20109;-78
2022/05/13 00:54:48;;;;;;;5.57;2.33;;;;;;;9.00;50.75;101537.47;4970241;28;20038;-82
2022/05/13 00:57:15;;;;;;;4.80;2.60;;;;;;;8.98;50.46;101532.31;4958427;28;20066;-80
2022/05/13 00:59:44;;;;;;;6.95;3.00;;;;;;;8.87;50.86;101529.06;4957871;28;20076;-76
2022/05/13 01:02:10;;;;;;;6.10;2.30;;;;;;;9.04;50.52;101530.44;4982772;28;20046;-81
2022/05/13 01:04:38;;;;;;;6.93;2.92;;;;;;;9.02;50.39;101533.06;4967657;28;20035;-79
2022/05/13 01:07:12;;;;;;;6.68;2.58;;;;;;;9.12;50.26;101529.38;4983575;28;20120;-79
2022/05/13 01:09:44;;;;;;;6.28;2.10;;;;;;;9.24;49.58;101536.03;4968266;28;20062;-81
2022/05/13 01:12:15;;;;;;;3.78;2.15;;;;;;;9.24;49.83;101533.44;4982872;28;20161;-78
2022/05/13 01:14:56;;;;;;;7.37;2.67;;;;;;;9.20;49.48;101539.63;4966278;28;20061;-77
2022/05/13 01:20:19;;;;;;;7.72;2.38;;;;;;;9.31;49.26;101526.31;4987386;28;20034;-81
2022/05/13 01:22:49;;;;;;;4.78;2.83;;;;;;;9.12;49.19;101521.56;4971947;28;20137;-78
2022/05/13 01:25:19;;;;;;;5.90;2.20;;;;;;;9.09;48.92;101518.16;4969764;28;20045;-81
2022/05/13 01:27:47;;;;;;;5.57;2.25;;;;;;;9.10;49.35;101520.72;4964019;28;20057;-80
2022/05/13 01:30:22;;;;;;;3.30;1.90;;;;;;;9.30;48.78;101519.41;4970304;28;20054;-81
2022/05/13 01:32:47;;;;;;;9.50;1.90;;;;;;;9.38;48.80;101505.25;4981745;28;20153;-79
2022/05/13 01:35:13;;;;;;;6.07;2.22;;;;;;;9.42;48.65;101508.66;4967121;28;20093;-80
2022/05/13 01:37:39;;;;;;;7.88;2.33;;;;;;;9.27;48.70;101512.47;4963894;28;20058;-80
2022/05/13 01:40:06;;;;;;;3.72;1.83;;;;;;;9.32;48.71;101510.63;4967498;28;20037;-77
2022/05/13 01:42:33;;;;;;;5.22;1.63;;;;;;;9.16;48.90;101509.28;4965306;28;20536;-80
2022/05/13 01:44:59;;;;;;;3.03;1.50;;;;;;;9.23;49.06;101505.66;4966522;28;20042;-79
2022/05/13 01:47:25;;;;;;;4.03;1.77;;;;;;;9.36;48.53;101496.59;4968047;28;20046;-77
2022/05/13 01:49:54;;;;;;;4.93;1.58;;;;;;;9.19;48.71;101493.56;4970042;28;20534;-76
2022/05/13 01:52:20;;;;;;;3.17;1.80;;;;;;;9.26;48.50;101497.75;4999581;28;20038;-82
2022/05/13 01:54:45;;;;;;;6.68;1.33;;;;;;;9.10;48.83;101488.59;4969017;28;20096;-82
2022/05/13 01:57:11;;;;;;;5.57;2.28;;;;;;;9.21;48.92;101497.00;4965440;28;20042;-79
2022/05/13 01:59:36;;;;;;;5.07;1.75;;;;;;;9.38;48.67;101497.41;4969470;28;20511;-80
2022/05/13 02:02:03;;;;;;;6.20;2.30;;;;;;;9.46;48.11;101502.47;5002012;28;20050;-81
2022/05/13 02:04:28;;;;;;;3.50;1.95;;;;;;;9.47;48.09;101503.31;4968727;28;20456;-81
2022/05/13 02:06:54;;;;;;;3.67;2.10;;;;;;;9.25;48.69;101500.38;4995996;28;20038;-81
2022/05/13 02:09:19;;;;;;;5.65;1.92;;;;;;;9.40;48.56;101493.03;4965905;28;20121;-81
2022/05/13 02:11:45;;;;;;;7.05;1.73;;;;;;;9.31;48.91;101500.22;4971363;28;20032;-78
2022/05/13 02:14:16;;;;;;;7.13;2.42;;;;;;;9.29;49.12;101492.44;4960390;28;20096;-80
2022/05/13 02:16:41;;;;;;;9.65;2.13;;;;;;;9.36;49.01;101491.38;4965880;28;20030;-80
2022/05/13 02:19:07;;;;;;;5.68;2.20;;;;;;;9.27;48.86;101490.75;4966040;28;20109;-79
2022/05/13 02:21:33;;;;;;;4.63;1.73;;;;;;;9.36;48.83;101482.72;5004684;28;20022;-80
2022/05/13 02:23:59;;;;;;;5.47;2.50;;;;;;;9.44;48.96;101480.78;5001376;28;20677;-80
2022/05/13 02:26:25;;;;;;;7.53;1.50;;;;;;;9.54;48.85;101473.53;5004960;28;20136;-79
2022/05/13 02:28:50;;;;;;;10.95;2.78;;;;;;;9.49;48.79;101480.66;4966188;28;20050;-77
2022/05/13 02:31:16;;;;;;;8.32;2.15;;;;;;;9.45;49.04;101482.47;4970627;28;20051;-80
2022/05/13 02:33:42;;;;;;;5.25;2.08;;;;;;;9.57;48.96;101478.72;4993476;28;20125;-78
2022/05/13 02:36:11;;;;;;;4.40;1.60;;;;;;;9.64;48.51;101468.97;4969705;28;20341;-79
2022/05/13 02:38:37;;;;;;;5.72;1.45;;;;;;;9.66;48.76;101473.25;4969688;28;20057;-79
2022/05/13 02:41:13;;;;;;;10.80;1.88;;;;;;;9.79;48.92;101471.16;4984410;28;20030;-82
2022/05/13 02:43:45;;;;;;;8.18;1.50;;;;;;;9.38;49.41;101468.72;4966447;28;20053;-80
2022/05/13 02:46:12;;;;;;;5.03;1.70;;;;;;;9.69;48.72;101462.72;4985071;28;20035;-79
2022/05/13 02:48:38;;;;;;;2.38;1.25;;;;;;;9.57;48.86;101463.06;4980124;28;20046;-78
2022/05/13 02:51:03;;;;;;;7.53;1.50;;;;;;;9.74;48.74;101460.81;4962142;28;20029;-81
2022/05/13 02:53:29;;;;;;;6.47;1.40;;;;;;;9.46;49.24;101446.81;4964417;28;20046;-81
2022/05/13 02:55:54;;;;;;;4.13;2.00;;;;;;;9.47;49.16;101445.91;4985804;28;20682;-78
2022/05/13 02:58:20;;;;;;;2.63;1.42;;;;;;;9.63;48.61;101439.38;5003570;28;20034;-78
2022/05/13 03:00:46;;;;;;;3.35;1.17;;;;;;;9.31;49.45;101435.88;4967247;28;20038;-81
2022/05/13 03:03:12;;;;;;;6.00;2.25;;;;;;;9.35;49.45;101432.28;5002012;28;20042;-80
2022/05/13 03:05:38;;;;;;;3.08;1.27;;;;;;;9.59;49.04;101432.56;4967338;28;20045;-81
2022/05/13 03:08:07;;;;;;;6.82;1.40;;;;;;;9.53;48.70;101419.66;4959507;28;20038;-80
2022/05/13 03:10:36;;;;;;;3.33;1.63;;;;;;;9.74;48.54;101411.22;4984555;28;20034;-82
2022/05/13 03:13:03;;;;;;;5.53;1.92;;;;;;;9.71;48.66;101419.16;4963842;28;20050;-81
2022/05/13 03:15:29;;;;;;;4.32;1.80;;;;;;;9.57;48.86;101416.06;4984040;28;20570;-80
2022/05/13 03:17:55;;;;;;;3.38;1.02;;;;;;;9.72;48.84;101415.66;4961796;28;20042;-81
2022/05/13 03:20:22;;;;;;;5.70;1.35;;;;;;;9.70;48.68;101407.00;4981691;28;20499;-80
2022/05/13 03:22:48;;;;;;;4.50;1.25;;;;;;;9.58;48.80;101410.78;4962633;28;20133;-77
2022/05/13 03:25:15;;;;;;;8.77;1.65;;;;;;;9.57;48.84;101423.91;4983958;28;20066;-80
2022/05/13 03:27:41;;;;;;;5.95;2.63;;;;;;;9.39;49.41;101413.06;4965529;28;20504;-78
2022/05/13 03:30:10;;;;;;;7.10;1.40;;;;;;;9.51;49.21;101418.84;4968660;28;20034;-79
2022/05/13 03:32:36;;;;;;;4.28;1.42;;;;;;;9.59;48.97;101414.28;4969820;28;20053;-81
2022/05/13 03:35:01;;;;;;;5.75;1.48;;;;;;;9.30;49.36;101418.53;4969404;28;20134;-77
2022/05/13 03:37:27;;;;;;;5.70;1.38;;;;;;;9.50;48.95;101414.50;4966439;28;20046;-80
2022/05/13 03:39:52;;;;;;;5.68;1.83;;;;;;;9.26;49.94;101414.28;5006888;28;20492;-81
2022/05/13 03:42:20;;;;;;;7.40;1.88;;;;;;;9.38;49.44;101420.91;4986051;28;20034;-80
2022/05/13 03:44:46;;;;;;;4.32;1.20;;;;;;;9.31;49.54;101414.16;4985229;28;20022;-80
2022/05/13 03:47:11;;;;;;;5.47;1.30;;;;;;;9.22;49.70;101420.47;4967931;28;20500;-79
2022/05/13 03:49:37;;;;;;;6.72;2.00;;;;;;;9.27;49.82;101421.19;5003460;28;20034;-80
2022/05/13 03:52:02;;;;;;;4.00;1.35;;;;;;;9.13;50.16;101420.69;4964779;28;20101;-76
2022/05/13 03:54:28;;;;;;;7.07;1.67;;;;;;;8.82;50.92;101420.59;4970071;28;20034;-79
2022/05/13 03:56:54;;;;;;;5.95;1.63;;;;;;;9.10;50.34;101428.59;5002251;28;20046;-78
2022/05/13 03:59:19;;;;;;;4.75;1.48;;;;;;;9.49;49.10;101425.84;4968935;28;20030;-80
2022/05/13 04:01:45;;;;;;;4.85;1.75;;;;;;;8.94;50.59;101418.56;4968398;28;20627;-80
2022/05/13 04:04:11;;;;;;;9.75;2.28;;;;;;;9.07;50.54;101426.06;4969690;28;20798;-80
2022/05/13 04:09:20;;;;;;;5.22;2.20;;;;;;;9.56;49.23;101424.78;4987448;28;20074;-80
2022/05/13 04:16:04;;;;;;;8.65;1.90;;;;;;;9.27;49.85;101423.78;4985943;28;20121;-80
2022/05/13 04:17:15;;;;;;;11.43;1.60;;;;;;;9.15;50.51;101439.78;4985888;28;20038;-80
2022/05/13 04:19:41;;;;;;;3.22;1.40;;;;;;;8.83;51.43;101437.94;4968506;28;20080;-80
2022/05/13 04:22:07;;;;;;;6.32;1.58;;;;;;;9.28;50.21;101441.19;5002276;28;20038;-81
2022/05/13 04:24:32;;;;;;;6.28;1.45;;;;;;;9.53;49.79;101445.75;4970582;28;20078;-78
2022/05/13 04:26:58;;;;;;;7.15;2.22;;;;;;;9.42;50.01;101451.25;4981090;28;20030;-80
2022/05/13 04:29:24;;;;;;;4.38;2.17;;;;;;;9.01;50.90;101447.06;4973139;28;21263;-80
2022/05/13 04:31:49;;;;;;;10.35;2.30;;;;;;;9.36;50.39;101434.00;5003599;28;20048;-76
2022/05/13 04:34:15;;;;;;;4.53;1.67;;;;;;;9.56;49.90;101437.84;4985973;28;20497;-80
2022/05/13 04:36:41;;;;;;;5.30;1.50;;;;;;;9.63;49.57;101441.97;4967864;28;20030;-79
2022/05/13 04:39:07;;;;;;;6.80;2.03;;;;;;;9.36;50.33;101454.00;4965628;28;20058;-82
2022/05/13 04:44:19;;;;;;;3.40;1.50;;;;;;;9.05;50.89;101444.34;4983222;28;20046;-80
2022/05/13 04:46:44;;;;;;;9.23;1.90;;;;;;;8.71;52.61;101452.13;5005695;28;20481;-80
2022/05/13 04:49:10;;;;;;;6.30;2.38;;;;;;;9.30;50.91;101460.25;5002930;28;20046;-79
2022/05/13 04:51:37;;;;;;;5.57;1.83;;;;;;;9.13;51.19;101458.06;5006024;28;20398;-82
2022/05/13 04:54:04;;;;;;;6.00;2.22;;;;;;;9.40;50.56;101459.09;4967553;28;20041;-80
2022/05/13 04:56:30;;;;;;;7.05;2.13;;;;;;;9.11;51.27;101457.22;4971584;28;20037;-79
2022/05/13 04:58:57;;;;;;;5.47;2.10;;;;;;;8.90;52.03;101444.72;4964843;28;20046;-79
2022/05/13 05:01:23;;;;;;;6.00;1.58;;;;;;;9.21;51.09;101450.06;4967856;28;20054;-78
2022/05/13 05:03:49;;;;;;;9.68;2.10;;;;;;;9.40;50.76;101443.44;4961540;28;20099;-81
2022/05/13 05:06:17;;;;;;;10.43;2.67;;;;;;;8.85;52.25;101452.66;4972926;28;20026;-78
2022/05/13 05:08:44;;;;;;;6.00;1.80;;;;;;;9.33;50.94;101449.72;4970267;28;20105;-79
2022/05/13 05:11:11;;;;;;;7.57;2.08;;;;;;;9.03;52.10;101445.28;4984488;28;20630;-79
2022/05/13 05:13:41;;;;;;;3.10;2.00;;;;;;;9.01;51.78;101447.06;4967493;28;20221;-80
2022/05/13 05:16:07;;;;;;;5.57;2.08;;;;;;;8.87;52.21;101447.41;4972499;28;20076;-77
2022/05/13 05:18:34;;;;;;;7.38;2.10;;;;;;;9.04;51.51;101453.06;4971073;28;20539;-78
2022/05/13 05:21:00;;;;;;;4.53;2.17;;;;;;;9.34;50.86;101461.00;4968617;28;20408;-81
2022/05/13 05:23:29;;;;;;;7.15;2.40;;;;;;;9.29;51.53;101455.91;4986229;28;20048;-77
2022/05/13 05:25:55;;;;;;;8.88;2.00;;;;;;;8.97;52.49;101461.94;4996892;28;20030;-80
2022/05/13 05:28:21;;;;;;;4.43;2.20;;;;;;;8.81;52.68;101466.66;4992734;28;20050;-79
2022/05/13 05:30:47;;;;;;;8.43;2.35;;;;;;;9.30;51.52;101475.06;4973201;28;20100;-83
2022/05/13 05:33:14;;;;;;;10.15;1.85;;;;;;;9.46;50.88;101470.31;4965372;28;20065;-82
2022/05/13 05:35:40;;;;;;;8.95;2.08;;;;;;;9.48;51.41;101471.13;4969155;28;20037;-80
2022/05/13 05:38:07;;;;;;;8.60;2.67;;;;;;;9.34;51.45;101467.13;4966703;28;20048;-79
2022/05/13 05:40:37;;;;;;;8.70;2.28;;;;;;;9.22;51.86;101477.00;4970718;28;20042;-80
2022/05/13 05:43:05;;;;;;;4.45;2.03;;;;;;;9.39;51.20;101472.22;4961063;28;20522;-80
2022/05/13 05:45:30;;;;;;;6.65;2.33;;;;;;;8.50;53.82;101471.66;4969385;28;20129;-79
2022/05/13 05:47:56;;;;;;;11.23;2.83;;;;;;;9.15;52.37;101473.66;4968389;28;20142;-81
2022/05/13 05:50:21;;;;;;;7.90;2.13;;;;;;;9.17;52.13;101474.50;4966709;28;20061;-79
2022/05/13 05:52:47;;;;;;;6.13;2.88;;;;;;;8.91;52.69;101489.00;4964510;28;20047;-79
2022/05/13 05:58:07;;;;;;;7.82;2.20;;;;;;;9.37;51.78;101469.63;4981155;28;20042;-80
2022/05/13 06:00:36;;;;;;;7.40;1.90;;;;;;;9.69;51.25;101467.94;4966616;28;20112;-79
2022/05/13 06:03:02;;;;;;;6.70;2.78;;;;;;;9.94;50.53;101477.72;4936764;28;20062;-76
2022/05/13 06:05:27;;;;;;;7.82;2.17;;;;;;;10.01;50.61;101471.44;4983152;28;20034;-78
2022/05/13 06:07:55;;;;;;;10.02;2.22;;;;;;;9.81;50.89;101477.19;4977924;28;20103;-80
2022/05/13 06:10:21;;;;;;;2.90;1.75;;;;;;;10.02;50.74;101481.00;4982212;28;20038;-77
2022/05/13 06:12:47;;;;;;;9.43;2.85;;;;;;;9.68;51.85;101487.09;4982340;28;20711;-81
2022/05/13 06:15:14;;;;;;;6.35;2.05;;;;;;;10.50;50.06;101487.44;5003711;28;20034;-81
2022/05/13 06:17:47;;;;;;;5.32;2.22;;;;;;;11.37;47.79;101486.47;4947303;28;20076;-80
2022/05/13 06:20:14;;;;;;;14.75;2.50;;;;;;;13.38;44.37;101492.03;4983349;28;20495;-79
2022/05/13 06:22:40;;;;;;;11.52;2.40;;;;;;;14.44;41.24;101490.06;4968120;28;20679;-80
2022/05/13 06:25:07;;;;;;;9.18;2.55;;;;;;;13.80;41.22;101493.78;4978710;28;20056;-80
2022/05/13 06:27:34;;;;;;;11.55;2.60;;;;;;;12.80;43.91;101489.19;4997549;28;20046;-79
2022/05/13 06:30:00;;;;;;;5.97;2.58;;;;;;;11.96;45.63;101485.34;4982629;28;20054;-79
2022/05/13 06:32:26;;;;;;;8.52;2.45;;;;;;;12.22;45.94;101493.09;4985094;28;20069;-77
2022/05/13 06:34:51;;;;;;;5.78;1.60;;;;;;;12.01;46.43;101489.50;4952645;28;20623;-80
2022/05/13 06:37:17;;;;;;;7.47;2.40;;;;;;;12.24;46.24;101490.41;5002092;28;20826;-79
2022/05/13 06:39:42;;;;;;;13.15;3.00;;;;;;;12.51;45.53;101493.75;4965410;28;20035;-80
2022/05/13 06:42:08;;;;;;;12.02;2.42;;;;;;;12.12;46.03;101491.72;4964332;28;20041;-77
2022/05/13 06:44:41;;;;;;;8.05;2.85;;;;;;;11.21;47.86;101491.34;4965100;28;20041;-77
2022/05/13 06:47:07;;;;;;;16.38;2.78;;;;;;;11.17;48.17;101490.63;4963432;28;20030;-79
2022/05/13 06:49:33;;;;;;;9.60;2.10;;;;;;;11.27;48.22;101485.94;4967582;28;20172;-77
2022/05/13 06:52:01;;;;;;;15.68;2.55;;;;;;;11.75;48.20;101482.53;4965165;28;20038;-78
2022/05/13 06:54:27;;;;;;;13.77;2.60;;;;;;;11.05;49.83;101502.31;4968613;28;20113;-80
2022/05/13 06:56:54;;;;;;;14.93;3.60;;;;;;;11.04;49.52;101497.16;4998593;28;20607;-75
2022/05/13 06:59:20;;;;;;;9.57;2.85;;;;;;;11.10;49.88;101509.16;4966301;28;20026;-80
2022/05/13 07:01:46;;;;;;;9.18;2.17;;;;;;;11.22;49.44;101493.09;4968150;28;20034;-82
2022/05/13 07:04:11;;;;;;;8.60;2.55;;;;;;;11.58;49.34;101500.59;5001735;28;20487;-82
2022/05/13 07:06:38;;;;;;;15.70;2.83;;;;;;;11.84;48.94;101502.34;5003254;28;20496;-77
2022/05/13 07:09:05;;;;;;;12.85;2.55;;;;;;;12.68;45.50;101499.19;4984605;28;20053;-78
2022/05/13 07:11:30;;;;;;;8.32;2.83;;;;;;;12.12;46.52;101511.84;4971155;28;20036;-80
2022/05/13 07:13:56;;;;;;;10.25;1.70;;;;;;;11.66;47.13;101527.38;4968060;28;20412;-77
2022/05/13 07:16:22;;;;;;;8.82;1.98;;;;;;;12.03;45.92;101518.25;4970117;28;20026;-77
2022/05/13 07:18:48;;;;;;;10.13;2.40;;;;;;;12.13;45.75;101519.63;4967814;28;20050;-79
2022/05/13 07:21:15;;;;;;;8.00;1.45;;;;;;;11.10;47.79;101524.88;4969238;28;20061;-81
2022/05/13 07:23:41;;;;;;;17.17;1.88;;;;;;;11.34;47.30;101524.06;5002706;28;20038;-77
2022/05/13 07:26:06;;;;;;;6.18;1.48;;;;;;;12.00;46.05;101528.84;4983953;28;20245;-78
2022/05/13 07:28:33;;;;;;;8.88;2.28;;;;;;;11.78;46.59;101527.00;4962935;28;20049;-78
2022/05/13 07:31:00;;;;;;;4.55;1.25;;;;;;;11.50;46.94;101528.81;4968162;28;20031;-80
2022/05/13 07:33:28;;;;;;;12.85;2.00;;;;;;;11.88;46.18;101522.28;4966731;28;20135;-77
2022/05/13 07:35:54;;;;;;;12.52;2.00;;;;;;;11.83;46.34;101522.44;4982864;28;20058;-78
2022/05/13 07:38:19;;;;;;;15.35;1.60;;;;;;;11.92;45.87;101531.75;4965790;28;20069;-79
2022/05/13 07:43:29;;;;;;;4.45;0.80;;;;;;;12.23;44.01;101535.88;4979835;28;20049;-78
2022/05/13 07:45:55;;;;;;;7.43;0.85;;;;;;;12.63;42.82;101529.16;4967201;28;20128;-81
2022/05/13 07:48:21;;;;;;;8.32;0.80;;;;;;;12.94;42.69;101533.22;4966552;28;20057;-79
2022/05/13 07:50:46;;;;;;;10.63;0.63;;;;;;;13.15;42.37;101532.38;4983344;28;20038;-77
2022/05/13 07:53:15;;;;;;;6.43;0.68;;;;;;;12.59;42.46;101538.91;4962970;28;20274;-77
2022/05/13 07:55:41;;;;;;;13.65;1.17;;;;;;;12.98;41.80;101538.31;4964959;28;20049;-77
2022/05/13 07:58:06;;;;;;;3.45;0.70;;;;;;;12.09;43.53;101533.78;4965044;28;20046;-78
2022/05/13 08:00:33;;;;;;;4.35;1.05;;;;;;;12.37;43.95;101540.63;4965724;28;20058;-80
2022/05/13 08:03:03;;;;;;;11.73;0.73;;;;;;;12.94;42.05;101543.72;4971338;28;20046;-77
2022/05/13 08:05:40;;;;;;;4.32;0.60;;;;;;;13.41;40.50;101536.56;4969198;28;20117;-77
2022/05/13 08:08:13;;;;;;;1.55;0.70;;;;;;;13.44;40.89;101544.31;4972296;28;20138;-79
2022/05/13 08:10:43;;;;;;;5.25;0.68;;;;;;;13.17;39.94;101546.28;4966423;28;20040;-76
2022/05/13 08:13:08;;;;;;;5.97;0.90;;;;;;;13.96;39.22;101549.13;4969174;28;20480;-78
2022/05/13 08:15:34;;;;;;;3.17;1.08;;;;;;;16.05;36.01;101541.00;4971139;28;20422;-79
2022/05/13 08:18:00;;;;;;;4.28;1.10;;;;;;;14.04;37.59;101535.69;4962622;28;20046;-80
2022/05/13 08:20:26;;;;;;;3.47;0.60;;;;;;;13.90;38.15;101542.41;5001174;28;20354;-79
2022/05/13 08:22:54;;;;;;;0.88;0.20;;;;;;;12.78;40.96;101540.84;4965792;28;20173;-82
2022/05/13 08:25:19;;;;;;;3.75;0.35;;;;;;;12.06;43.54;101555.66;4989918;28;20117;-78
2022/05/13 08:27:45;;;;;;;3.60;0.77;;;;;;;11.56;45.83;101565.25;4968602;28;20564;-77
2022/05/13 08:30:12;;;;;;;4.97;0.98;;;;;;;11.24;46.74;101569.75;4983541;28;20157;-77
2022/05/13 08:32:37;;;;;;;5.75;1.20;;;;;;;11.16;46.87;101574.38;4998540;28;20056;-77
2022/05/13 08:35:04;;;;;;;4.97;1.10;;;;;;;11.20;48.02;101570.78;4966457;28;20034;-78
2022/05/13 08:37:30;;;;;;;6.43;1.35;;;;;;;10.24;50.61;101582.28;4976237;28;20137;-77
2022/05/13 08:39:59;;;;;;;5.50;1.20;;;;;;;11.97;47.06;101582.19;4999393;28;20156;-76
2022/05/13 08:42:37;;;;;;;4.38;1.63;;;;;;;13.43;43.27;101584.63;4982979;28;20393;-79
2022/05/13 08:45:07;;;;;;;3.35;0.80;;;;;;;14.53;40.99;101583.47;4965737;28;20096;-80
2022/05/13 08:47:57;;;;;;;11.70;0.85;;;;;;;16.59;37.13;101578.53;4981983;28;20046;-78
2022/05/13 08:50:37;;;;;;;3.58;1.08;;;;;;;14.56;40.01;101585.94;4980799;28;20340;-80
2022/05/13 08:53:09;;;;;;;3.83;0.88;;;;;;;14.23;40.34;101594.41;4964576;28;20519;-78
2022/05/13 08:55:50;;;;;;;4.00;0.85;;;;;;;13.38;43.78;101594.44;4982208;28;20042;-79
2022/05/13 08:58:45;;;;;;;4.97;0.93;;;;;;;12.06;46.22;101596.75;4965255;28;20038;-79
2022/05/13 09:01:23;;;;;;;4.65;1.67;;;;;;;13.20;44.78;101597.81;4963653;28;20077;-80
2022/05/13 09:03:59;;;;;;;6.32;1.23;;;;;;;15.69;39.23;101577.06;4964435;28;20194;-78
2022/05/13 09:06:39;;;;;;;5.55;1.13;;;;;;;14.42;41.21;101581.31;4964305;28;20125;-77
2022/05/13 09:09:12;;;;;;;4.45;0.85;;;;;;;14.05;40.74;101588.16;4963592;28;20050;-78
2022/05/13 09:11:45;;;;;;;5.50;1.15;;;;;;;14.14;41.14;101592.16;4964798;28;20046;-77
2022/05/13 09:14:20;;;;;;;5.68;0.68;;;;;;;13.37;41.36;101599.78;4962458;28;20038;-77
2022/05/13 09:17:11;;;;;;;4.13;0.50;;;;;;;13.38;41.50;101597.06;4964492;28;20367;-78
2022/05/13 09:19:41;;;;;;;3.55;0.88;;;;;;;13.13;41.97;101599.81;4967714;28;20383;-79
2022/05/13 09:22:10;;;;;;;5.50;1.23;;;;;;;12.59;41.08;101601.84;4978886;28;20036;-79
2022/05/13 09:24:36;;;;;;;3.33;0.40;;;;;;;13.24;40.43;101617.78;4968115;28;20038;-79
2022/05/13 09:27:02;;;;;;;7.43;0.40;;;;;;;13.53;39.95;101609.56;4963942;28;20035;-78
2022/05/13 09:29:39;;;;;;;1.33;0.50;;;;;;;13.40;38.52;101603.13;5003246;28;20036;-78
2022/05/13 09:32:12;;;;;;;6.18;0.45;;;;;;;12.81;40.01;101616.81;4962066;28;20177;-78
2022/05/13 09:34:41;;;;;;;;;;;;;;;13.14;40.35;101614.66;4997721;28;20030;-79
2022/05/13 09:37:12;;;;;;;6.47;0.77;;;;;;;14.77;37.19;101607.81;4977012;28;19922;-79
2022/05/13 09:39:44;;;;;;;8.88;0.52;;;;;;;15.17;36.80;101606.78;4985452;28;20038;-78
2022/05/13 09:42:33;;;;;;;3.55;0.55;;;;;;;13.97;38.65;101615.72;4979712;28;20955;-77
2022/05/13 09:45:26;;;;;;;9.05;0.73;;;;;;;13.98;38.11;101627.94;4962578;28;20048;-79
2022/05/13 09:48:13;;;;;;;1.77;0.50;;;;;;;14.11;37.75;101618.59;4977695;28;20461;-78
2022/05/13 09:50:41;;;;;;;7.43;0.43;;;;;;;15.59;36.08;101624.09;4984262;28;20103;-78
2022/05/13 09:53:26;;;;;;;5.85;0.73;;;;;;;15.65;36.09;101622.09;4966369;28;20180;-78
2022/05/13 09:55:54;;;;;;;4.28;0.60;;;;;;;16.07;34.84;101623.53;4963330;28;20034;-79
2022/05/13 09:58:21;;;;;;;3.50;0.35;;;;;;;15.89;34.07;101615.59;4963770;28;20810;-81
2022/05/13 10:01:01;;;;;;;1.88;0.47;;;;;;;16.88;32.82;101628.94;4966020;28;20050;-80
2022/05/13 10:03:31;;;;;;;4.90;0.32;;;;;;;16.58;33.93;101624.34;4982888;28;20049;-80
2022/05/13 10:06:08;;;;;;;2.92;0.38;;;;;;;16.21;33.21;101631.56;4963194;28;20968;-79
2022/05/13 10:08:48;;;;;;;3.67;0.60;;;;;;;15.99;33.72;101622.09;4925273;28;20575;-78
2022/05/13 10:14:25;;;;;;;6.07;1.75;;;;;;;14.40;36.07;101624.38;4978902;28;20053;-80
2022/05/13 10:16:53;;;;;;;2.55;0.55;;;;;;;13.48;38.36;101634.34;4979025;28;20042;-80
2022/05/13 10:19:25;;;;;;;4.28;0.30;;;;;;;15.23;36.96;101621.47;4978288;28;20030;-76
2022/05/13 10:22:21;;;;;;;2.30;0.30;;;;;;;16.42;34.08;101622.53;4961471;28;20121;-80
2022/05/13 10:25:08;;;;;;;7.38;0.60;;;;;;;15.51;33.89;101620.97;4963354;28;20034;-75
2022/05/13 10:27:45;;;;;;;7.38;0.85;;;;;;;15.54;34.45;101626.09;4979770;28;20484;-79
2022/05/13 10:30:16;;;;;;;3.53;1.08;;;;;;;15.91;33.88;101623.41;4981574;28;20101;-79
2022/05/13 10:32:56;;;;;;;1.90;0.43;;;;;;;14.67;35.56;101628.41;4963254;28;20121;-80
2022/05/13 10:35:27;;;;;;;4.97;0.40;;;;;;;15.37;33.71;101624.28;4964159;28;20104;-76
2022/05/13 10:38:18;;;;;;;3.03;0.30;;;;;;;15.09;34.71;101632.63;4944771;28;20045;-79
2022/05/13 10:40:47;;;;;;;4.93;0.20;;;;;;;14.84;35.47;101645.22;4960814;28;20348;-77
2022/05/13 10:43:45;;;;;;;6.53;0.30;;;;;;;14.43;35.95;101656.66;4966289;28;20271;-80
2022/05/13 10:46:21;;;;;;;4.15;0.43;;;;;;;14.92;35.13;101656.22;4995278;28;20042;-79
2022/05/13 10:48:51;;;;;;;2.08;0.20;;;;;;;16.05;34.33;101652.59;4978120;28;20109;-79
2022/05/13 10:51:22;;;;;;;5.78;0.22;;;;;;;16.39;33.37;101646.41;5000714;28;20042;-80
2022/05/13 10:54:16;;;;;;;4.32;0.30;;;;;;;16.62;32.70;101658.41;4960236;28;20073;-80
2022/05/13 10:57:06;;;;;;;2.63;0.32;;;;;;;15.80;33.14;101658.22;4959997;28;20192;-78
2022/05/13 10:59:56;;;;;;;3.78;0.40;;;;;;;15.67;33.74;101662.38;4964111;28;20046;-78
2022/05/13 11:02:50;;;;;;;2.10;0.32;;;;;;;15.25;34.20;101674.06;4978232;28;20057;-79
2022/05/13 11:05:33;;;;;;;4.35;0.30;;;;;;;15.27;33.94;101659.88;4966210;28;20073;-79
2022/05/13 11:08:19;;;;;;;6.60;0.60;;;;;;;15.13;34.53;101673.69;4933087;28;20082;-79
2022/05/13 11:10:45;;;;;;;2.65;0.40;;;;;;;14.01;36.05;101672.47;4973422;28;20350;-79
2022/05/13 11:13:31;;;;;;;4.68;0.60;;;;;;;15.00;35.27;101669.91;4937817;28;20089;-79
2022/05/13 11:16:01;;;;;;;6.85;0.73;;;;;;;14.74;35.63;101677.19;4961344;28;20042;-75
2022/05/13 11:18:46;;;;;;;7.25;0.50;;;;;;;14.39;35.75;101680.50;4971047;28;20050;-78
2022/05/13 11:21:12;;;;;;;2.10;0.40;;;;;;;15.06;35.16;101682.78;4965545;28;20041;-81
2022/05/13 11:27:17;;;;;;;5.40;0.57;;;;;;;16.07;33.79;101682.38;4981215;28;20046;-78
2022/05/13 11:29:51;;;;;;;4.20;1.02;;;;;;;16.58;32.93;101672.69;4985160;28;20517;-80
2022/05/13 11:32:40;;;;;;;5.05;0.60;;;;;;;15.85;35.05;101672.00;4980525;28;20129;-78
2022/05/13 11:35:29;;;;;;;3.85;0.45;;;;;;;15.59;34.50;101676.81;4963011;28;20031;-78
2022/05/13 11:38:03;;;;;;;4.30;0.30;;;;;;;16.26;32.84;101686.72;4952058;28;20056;-79
2022/05/13 11:40:38;;;;;;;4.93;0.93;;;;;;;15.66;33.33;101676.47;4979318;28;20040;-82
2022/05/13 11:43:21;;;;;;;3.15;0.28;;;;;;;15.30;34.07;101667.63;4965860;28;20769;-79
2022/05/13 11:46:01;;;;;;;1.92;0.65;;;;;;;16.61;32.88;101669.03;4964740;28;20038;-80
2022/05/13 11:48:29;;;;;;;2.55;0.22;;;;;;;16.88;32.44;101674.66;4985701;28;21025;-78
2022/05/13 11:51:09;;;;;;;3.95;0.40;;;;;;;17.29;31.75;101662.75;4965272;28;20121;-76
2022/05/13 11:53:41;;;;;;;5.82;0.90;;;;;;;17.39;30.56;101663.94;4966308;28;20045;-76
2022/05/13 11:56:31;;;;;;;8.00;0.50;;;;;;;16.23;32.57;101682.44;4982442;28;20038;-78
2022/05/13 11:59:11;;;;;;;4.43;0.47;;;;;;;16.07;33.33;101676.25;4937905;28;20042;-78
2022/05/13 12:01:36;;;;;;;6.82;0.85;;;;;;;16.21;32.31;101679.03;4966906;28;20125;-79
2022/05/13 12:04:11;;;;;;;1.75;0.93;;;;;;;14.98;34.81;101680.50;4960892;28;20117;-77